Date,TemperatureHighF,TemperatureAvgF,TemperatureLowF,DewpointHighF,DewpointAvgF,DewpointLowF,HumidityHigh,HumidityAvg,HumidityLow,PressureMaxIn,PressureMinIn,WindSpeedMaxMPH,WindSpeedAvgMPH,GustSpeedMaxMPH,PrecipitationSumIn
2013-4-1,45.8,39.8,31.7,43.0,27.8,14.0,92,65,35,30.03,29.70,19,7,29,0.01
2013-4-2,37.4,30.7,24.8,19.0,15.4,13.0,72,55,40,30.22,30.03,16,4,20,0.00
2013-4-3,38.2,31.4,25.4,21.0,14.3,10.0,71,51,33,30.43,30.21,14,4,23,0.00
2013-4-4,53.0,35.4,17.1,20.0,15.4,11.0,81,49,23,30.42,30.00,5,1,8,0.00
2013-4-5,52.8,43.3,33.2,32.0,24.2,18.0,63,48,37,30.18,29.95,12,4,21,0.00
2013-4-6,57.4,42.3,21.3,25.0,18.8,15.0,85,45,20,30.30,30.03,5,1,9,0.00
2013-4-7,70.6,61.1,50.1,47.0,39.7,22.0,65,46,33,30.02,29.86,21,7,26,0.00
2013-4-8,73.1,60.6,46.7,52.0,46.2,40.0,80,61,43,30.02,29.86,19,3,23,0.00
2013-4-9,79.4,68.9,57.7,58.0,53.9,50.0,81,60,44,30.07,29.87,16,4,23,0.00
2013-4-10,79.4,68.9,58.4,64.0,57.7,52.0,95,69,53,29.91,29.75,13,5,27,0.41
2013-4-11,73.6,64.0,55.6,60.0,57.2,52.0,96,80,61,29.86,29.56,10,2,19,0.01
2013-4-12,61.2,55.0,43.9,59.0,49.0,34.0,96,81,61,29.84,29.46,24,6,26,0.36
2013-4-13,51.3,43.2,37.2,36.0,33.6,32.0,82,70,53,30.03,29.84,17,5,26,0.00
2013-4-14,61.9,47.5,31.1,40.0,33.8,27.0,87,62,42,30.16,30.01,11,1,11,0.00
2013-4-15,65.8,59.5,54.4,52.0,46.1,37.0,71,62,52,30.07,29.97,9,3,14,0.00
2013-4-16,77.5,63.3,53.3,61.0,54.5,48.0,95,74,55,30.16,30.00,14,4,25,0.65
2013-4-17,67.3,57.8,50.5,57.0,52.6,48.0,96,83,67,30.22,30.07,6,1,8,0.00
2013-4-18,83.8,70.8,58.1,63.0,58.3,55.0,91,67,44,30.09,29.72,11,4,21,0.00
2013-4-19,70.3,58.0,43.1,61.0,48.3,30.0,88,71,60,29.84,29.44,16,7,33,0.16
2013-4-20,45.6,40.1,34.2,31.0,27.0,23.0,82,60,45,30.41,29.84,17,7,26,0.00
2013-4-21,53.7,40.5,25.3,29.0,23.8,21.0,87,54,30,30.61,30.42,6,1,9,0.00
2013-4-22,62.4,50.1,39.1,39.0,29.3,23.0,60,46,30,30.47,30.27,7,1,10,0.00
2013-4-23,70.8,55.0,37.6,44.0,36.5,30.0,80,53,32,30.27,29.95,6,1,12,0.00
2013-4-24,68.4,54.7,37.7,56.0,44.9,34.0,91,71,50,30.16,29.73,30,5,32,0.30
2013-4-25,55.5,44.0,31.9,39.0,33.6,30.0,94,70,40,30.36,30.16,18,4,23,0.01
2013-4-26,60.3,47.0,32.8,39.0,33.6,29.0,96,65,33,30.48,30.36,9,1,9,0.00
2013-4-27,73.1,55.6,34.5,43.0,35.7,29.0,86,51,27,30.40,30.14,4,1,7,0.00
2013-4-28,60.3,55.2,51.6,56.0,48.1,41.0,94,78,52,30.14,29.91,5,1,9,0.30
2013-4-29,63.3,56.5,51.1,57.0,53.0,48.0,93,88,79,30.01,29.92,7,1,8,0.05
2013-4-30,73.5,61.3,50.9,58.0,53.7,50.0,97,78,55,30.16,30.01,4,1,9,0.01